Great Bend, Kansas
Current Conditions -  °F | °C
As of 10:35 PM on Thursday 20 Nov 2014 (Local Time) from KGBD Reporting Station
Clear Clear  
Wind Chill: 24°   Ceiling: Unl
Heat Index: 32°   Visibility: 10mi
Dew Point: 19°   Wind: 9mph
Humidity: 60%   Direction: 130°SE
Pressure: 30.14"   Gusts: NA
Location:  38.37°N, 98.76°W
Report Text: KGBD 210435Z AUTO 13008KT 10SM CLR 00/M07 A3014 RMK AO1
Loading
Personal Weather Stations






























Interactive Weather Map New forecast layout! Learn more

10-Day Weather Forecast

Advertisements
Track Severe Weather on mobile